Tiempo atmosférico en la estación meteorológica de Villarrasa, Huelva (145 m.)



Fecha
DESCASC
Temp. máxima en grados centígrados (hora)
DESCASC
Temp. mínima en grados centígrados (hora)
DESCASC
Temp. media en grados centígrados
DESCASC
Racha de viento máxima en m/sg (hora)
DESCASC
Velocidad máxima media en intervalos de 10 minutos(hora)
DESCASC
Precipitaciones diarias en mm
DESCASC
Precipitaciones de 00:00 a 06:00 en mm
DESCASC
Precipitaciones de 06:00 a 12:00 en mm
DESCASC
Precipitaciones de 12:00 a 18:00 en mm
DESCASC
Precipitaciones de 18:00 a 24:00 en mm
DESCASC
17-09-2020 27.5 (15:00) 17.8 (01:50) 22.6 9.44 (15:50) 5.28 (16:00) 0 0 0 0 0
16-09-2020 28.9 (15:30) 15.4 (08:30) 22.1 7.78 (17:20) 4.72 (17:20) 0 0 0 0 0
15-09-2020 30.7 (16:50) 14.5 (08:20) 22.6 7.78 (18:30) 4.17 (18:30) 0 0 0 0 0
14-09-2020 31.1 (13:50) 18.5 (00:00) 24.8 11.11 (14:20) 5.28 (15:20) 0 0 0 0 0
13-09-2020 33.8 (15:00) 20.1 (00:00) 26.9 9.72 (15:50) 5.28 (16:00) 0 0 0 0 0
12-09-2020 36.2 (17:00) 16.5 (00:00) 26.4 7.78 (15:10) 4.44 (13:50) 0 0 0 0 0
11-09-2020 35.7 (17:50) 15.8 (00:00) 25.8 8.89 (19:00) 5 (19:10) 0 0 0 0 0
10-09-2020 34.7 (15:40) 15.7 (00:00) 25.2 8.06 (17:10) 4.72 (17:20) 0 0 0 0 0
09-09-2020 33.4 (17:20) 18.2 (00:00) 25.8 9.17 (17:30) 4.72 (17:40) 0 0 0 0 0
08-09-2020 33.6 (16:30) 17.1 (00:00) 25.3 9.17 (17:10) 5 (17:20) 0 0 0 0 0
07-09-2020 34.4 (15:40) 16.7 (08:10) 25.6 9.72 (18:40) 5.28 (18:20) 0 0 0 0 0
06-09-2020 35.5 (15:40) 17.3 (00:00) 26.4 8.33 (15:50) 5 (18:30) 0 0 0 0 0
05-09-2020 36.7 (16:50) 17 (00:00) 26.9 7.22 (16:50) 4.17 (19:10) 0 0 0 0 0
04-09-2020 36.3 (17:50) 18 (00:00) 27.1 9.44 (12:20) 4.44 (14:20) 0 0 0 0 0
03-09-2020 36.4 (17:40) 14.8 (00:00) 25.6 10.56 (15:20) 5 (15:30) 0 0 0 0 0
02-09-2020 32.6 (17:10) 13.4 (00:00) 23 8.61 (17:40) 5 (17:40) 0 0 0 0 0
01-09-2020 32.3 (16:20) 14.5 (00:00) 23.4 10.28 (18:00) 5.83 (17:20) 0 0 0 0 0
31-08-2020 34.4 (18:30) 13.1 (00:00) 23.8 9.72 (17:30) 4.17 (12:40) 0 0 0 0 0
30-08-2020 33.3 (17:30) 15.8 (00:00) 24.5 8.61 (11:50) 3.89 (02:40) 0 0 0 0 0
29-08-2020 29.5 (17:30) 13.8 (00:00) 21.7 15.28 (18:20) 7.22 (01:00) 0 0 0 0 0
28-08-2020 34.2 (17:10) 19.7 (00:00) 27 12.5 (17:40) 6.67 (20:00) 0 0 0 0 0
27-08-2020 38.9 (17:20) 18.5 (00:00) 28.7 11.11 (16:40) 6.11 (18:40) 0 0 0 0 0
26-08-2020 39 (16:40) 17.3 (00:00) 28.1 8.06 (19:40) 5 (19:40) 0 0 0 0 0
25-08-2020 38.1 (17:40) 17.1 (00:00) 27.6 7.78 (19:50) 5.28 (19:50) 0 0 0 0 0
24-08-2020 35.1 (16:30) 15.7 (00:00) 25.4 8.06 (19:10) 4.72 (18:00) 0 0 0 0 0
23-08-2020 39 (16:40) 15.2 (00:00) 27.1 10.56 (18:20) 4.72 (18:40) 0 0 0 0 0
22-08-2020 38.2 (17:50) 19 (00:00) 28.6 8.33 (20:30) 4.44 (19:40) 0 0 0 0 0
21-08-2020 35.1 (15:40) 16.5 (00:00) 25.8 9.44 (16:40) 5.28 (17:20) 0 0 0 0 0

Gráficas

Temp. máximas Temp. mínimas Temp. medias Precipitaciones Rachas de viento máximas Velocidades máximas media en intervalos de 10 minutos

Datos horarios

Fecha y hora oficial Temperatura (ºC) Velocidad del viento (km/h) Dirección del viento Racha (km/h) Dirección de racha Precipitación (mm) Presión (hPa) Tendencia (hPa) Humedad (%)
2020-09-19 23:00:00 18.9 2 Noroeste 10 Sudoeste 0 -- -- 82
2020-09-19 22:00:00 20 4 Oeste 18 Sudoeste 0 -- -- 79
2020-09-19 21:00:00 20.6 8 Sudoeste 25 Sudoeste 0 -- -- 75
2020-09-19 20:00:00 22.2 13 Sudoeste 31 Sudoeste 0 -- -- 67
2020-09-19 19:00:00 23.6 16 Sudoeste 32 Sudoeste 0 -- -- 58
2020-09-19 18:00:00 25.5 13 Sudoeste 27 Oeste 0 -- -- 56
2020-09-19 17:00:00 26.3 15 Sudoeste 28 Sudoeste 0 -- -- 54
2020-09-19 16:00:00 26.7 16 Sudoeste 30 Sudoeste 0 -- -- 52
2020-09-19 15:00:00 26 12 Sudoeste 29 Sur 0 -- -- 54
2020-09-19 14:00:00 24.9 8 Sudoeste 22 Sur 0 -- -- 56
2020-09-19 13:00:00 24 9 Sudoeste 21 Sudoeste 0 -- -- 60
2020-09-19 12:00:00 21.9 4 Oeste 11 Sudoeste 0 -- -- 69
2020-09-19 11:00:00 19.9 0 Calma 6 Sudeste 0 -- -- 80
2020-09-19 10:00:00 18.4 2 Sudeste 11 Sur 0.2 -- -- 95
2020-09-19 09:00:00 18 2 Sudeste 5 Sudeste 0 -- -- 95
2020-09-19 08:00:00 17.5 5 Sudeste 8 Sudeste 0 -- -- 95
2020-09-19 07:00:00 17 3 Noroeste 5 Norte 0 -- -- 95
2020-09-19 06:00:00 16.4 3 Norte 4 Oeste 0 -- -- 93
2020-09-19 05:00:00 17.2 2 Noroeste 4 Noroeste 0 -- -- 93
2020-09-19 04:00:00 18.1 2 Oeste 10 Oeste 0 -- -- 90
2020-09-19 03:00:00 18.8 6 Oeste 14 Sudoeste 0 -- -- 90
2020-09-19 02:00:00 18.8 5 Oeste 12 Sur 0.2 -- -- 91
2020-09-19 01:00:00 19.1 6 Oeste 15 Sudoeste 0 -- -- 89
2020-09-19 00:00:00 19.1 7 Sudoeste 18 Sudoeste 0 -- -- 88
2020-09-18 23:00:00 19.1 8 Sudoeste 20 Sudoeste 0 -- -- 88
2020-09-18 22:00:00 19.1 13 Sudoeste 48 Sudoeste 0 -- -- 85
2020-09-18 21:00:00 20.6 11 Sudoeste 38 Sudoeste 0 -- -- 81
2020-09-18 20:00:00 20.4 16 Sudoeste 42 Sudoeste 0.2 -- -- 79
2020-09-18 19:00:00 21.4 15 Sudoeste 56 Sudoeste 0 -- -- 79
2020-09-18 18:00:00 22.8 22 Sudoeste 51 Sudoeste 0 -- -- 73
2020-09-18 17:00:00 23 25 Sudoeste 50 Sudoeste 0 -- -- 67
2020-09-18 16:00:00 23.2 23 Sur 53 Sur 0 -- -- 71
2020-09-18 15:00:00 22.8 17 Sudoeste 40 Sudoeste 0.2 -- -- 74
2020-09-18 14:00:00 18.4 7 Sudoeste 52 Sudoeste 9.4 -- -- 94
2020-09-18 13:00:00 20.9 16 Sur 28 Sur 0 -- -- 86
2020-09-18 12:00:00 19.7 13 Sur 49 Sudeste 1 -- -- 90
2020-09-18 11:00:00 21.9 15 Sudeste 26 Sur 0.2 -- -- 83
2020-09-18 10:00:00 20.5 12 Sudeste 22 Sudeste 0 -- -- 90
2020-09-18 09:00:00 17.4 8 Este 14 Este 0 -- -- 95
2020-09-18 08:00:00 16.6 4 Este 8 Sudeste 0 -- -- 94
2020-09-18 07:00:00 17 3 Este 9 Este 0 -- -- 93
2020-09-18 06:00:00 17.2 2 Este 7 Sudeste 0 -- -- 90
2020-09-18 05:00:00 18.7 5 Sudeste 8 Sudeste 0 -- -- 90
2020-09-18 04:00:00 19.9 4 Oeste 10 Oeste 0 -- -- 87
2020-09-18 03:00:00 20.4 6 Sudoeste 17 Sudoeste 0 -- -- 86
2020-09-18 02:00:00 21.2 12 Sudoeste 32 Sudoeste 0 -- -- 82
2020-09-18 01:00:00 21.8 9 Sur 25 Sur 0 -- -- 84
2020-09-18 00:00:00 21.6 12 Sur 26 Sudeste 0 -- -- 85
2020-09-17 23:00:00 21.6 8 Sur 16 Sudeste 0 -- -- 84
2020-09-17 22:00:00 21.8 8 Sur 19 Sur 0 -- -- 82
2020-09-17 21:00:00 22.1 8 Sudoeste 21 Sur 0 -- -- 80
2020-09-17 20:00:00 22.7 9 Sudoeste 26 Sudoeste 0 -- -- 76
2020-09-17 19:00:00 23.6 14 Sur 28 Sur 0 -- -- 69
2020-09-17 18:00:00 24.6 12 Sur 31 Sur 0 -- -- 67
2020-09-17 17:00:00 25.4 15 Sur 31 Sur 0 -- -- 62
2020-09-17 16:00:00 25.9 19 Sur 34 Sur 0 -- -- 57
2020-09-17 15:00:00 27.5 13 Sur 26 Sur 0 -- -- 52
2020-09-17 14:00:00 26.2 12 Sur 29 Sudeste 0 -- -- 56
2020-09-17 13:00:00 25.8 11 Sur 22 Sudeste 0 -- -- 56
2020-09-17 12:00:00 23.9 11 Sur 21 Sudoeste 0 -- -- 66
2020-09-17 11:00:00 22 5 Sudeste 11 Sudeste 0 -- -- 78
2020-09-17 10:00:00 21 4 Sur 8 Sudeste 0 -- -- 85
2020-09-17 09:00:00 18.6 0 Calma 3 Sudeste 0 -- -- 89
2020-09-17 08:00:00 19.2 0 Calma 6 Este 0 -- -- 86
2020-09-17 07:00:00 19.2 3 Sudeste 8 Este 0 -- -- 87
2020-09-17 06:00:00 19 5 Este 10 Este 0 -- -- 86
2020-09-17 05:00:00 18.9 5 Este 10 Este 0 -- -- 87
2020-09-17 04:00:00 18 3 Nordeste 7 Nordeste 0 -- -- 87
2020-09-17 03:00:00 18.6 2 Este 4 Este 0 -- -- 86
2020-09-17 02:00:00 17.9 0 Calma 3 Oeste 0 -- -- 87
2020-09-17 01:00:00 18.7 0 Calma 4 Noroeste 0 -- -- 84
2020-09-17 00:00:00 20.1 2 Noroeste 7 Oeste 0 -- -- 77
2020-09-16 23:00:00 21.9 4 Sudoeste 10 Oeste 0 -- -- 75
2020-09-16 22:00:00 22.6 3 Sudoeste 8 Sudoeste 0 -- -- 76
2020-09-16 21:00:00 23.1 2 Sur 10 Sudoeste 0 -- -- 72
2020-09-16 20:00:00 23.8 4 Sur 15 Sudoeste 0 -- -- 69
2020-09-16 19:00:00 24.5 6 Sudoeste 22 Sudoeste 0 -- -- 68
2020-09-16 18:00:00 25.4 13 Sudoeste 28 Sudoeste 0 -- -- 67
2020-09-16 17:00:00 28.1 13 Sur 24 Sudoeste 0 -- -- 53
2020-09-16 16:00:00 28.6 9 Sur 21 Sur 0 -- -- 52
2020-09-16 15:00:00 28.3 5 Sur 18 Sur 0 -- -- 53
2020-09-16 14:00:00 27.8 10 Sudeste 22 Sudeste 0 -- -- 53
2020-09-16 13:00:00 26.6 10 Sur 17 Sur 0 -- -- 55
2020-09-16 12:00:00 26.2 10 Sur 18 Sudeste 0 -- -- 54
2020-09-16 11:00:00 23.9 7 Sudeste 13 Sudeste 0 -- -- 59
2020-09-16 10:00:00 21.6 5 Este 12 Nordeste 0 -- -- 68
2020-09-16 09:00:00 16.2 4 Nordeste 8 Nordeste 0 -- -- 79
2020-09-16 08:00:00 15.7 3 Nordeste 7 Norte 0 -- -- 78
2020-09-16 07:00:00 16 5 Nordeste 10 Nordeste 0 -- -- 77
2020-09-16 06:00:00 16.4 3 Sudeste 5 Norte 0 -- -- 77
2020-09-16 05:00:00 16.8 4 Norte 8 Norte 0 -- -- 74
2020-09-16 04:00:00 17.7 2 Este 10 Norte 0 -- -- 72
2020-09-16 03:00:00 16.1 6 Noroeste 10 Norte 0 -- -- 75
2020-09-16 02:00:00 17 3 Oeste 8 Noroeste 0 -- -- 71
2020-09-16 01:00:00 16.8 2 Noroeste 5 Sudeste 0 -- -- 70
2020-09-16 00:00:00 18.8 0 Calma 7 Noroeste 0 -- -- 66
2020-09-15 23:00:00 20.5 4 Noroeste 11 Oeste 0 -- -- 63
2020-09-15 22:00:00 23.7 7 Oeste 13 Sudoeste 0 -- -- 58
2020-09-15 21:00:00 25.2 7 Sudoeste 17 Oeste 0 -- -- 55
2020-09-15 20:00:00 26.8 10 Sudoeste 24 Oeste 0 -- -- 51
2020-09-15 19:00:00 28.6 15 Sudoeste 28 Oeste 0 -- -- 47
2020-09-15 18:00:00 30.1 11 Sudoeste 21 Sudoeste 0 -- -- 46
2020-09-15 17:00:00 30.1 13 Sudoeste 25 Sur 0 -- -- 47
2020-09-15 16:00:00 30.3 9 Sur 25 Sudoeste 0 -- -- 46
2020-09-15 15:00:00 29.5 8 Sudoeste 21 Oeste 0 -- -- 46
2020-09-15 14:00:00 28.6 9 Sur 22 Sur 0 -- -- 49
2020-09-15 13:00:00 26.9 10 Sur 22 Sur 0 -- -- 57
2020-09-15 12:00:00 26 9 Sudeste 22 Sudeste 0 -- -- 63
2020-09-15 11:00:00 23.9 9 Sudeste 18 Este 0 -- -- 68
2020-09-15 10:00:00 19.9 4 Sudeste 8 Sudeste 0 -- -- 81
2020-09-15 09:00:00 15 3 Noroeste 4 Norte 0 -- -- 93
2020-09-15 08:00:00 14.6 2 Norte 5 Nordeste 0 -- -- 91
2020-09-15 07:00:00 15.3 3 Norte 8 Norte 0 -- -- 91
2020-09-15 06:00:00 15 5 Norte 7 Norte 0 -- -- 92
2020-09-15 05:00:00 15.2 4 Norte 5 Norte 0 -- -- 91
2020-09-15 04:00:00 15.7 3 Norte 5 Norte 0 -- -- 90
2020-09-15 03:00:00 16.1 4 Norte 7 Norte 0 -- -- 89
2020-09-15 02:00:00 17.3 3 Norte 6 Este 0 -- -- 86
2020-09-15 01:00:00 18.2 4 Noroeste 6 Oeste 0 -- -- 86
2020-09-15 00:00:00 19.3 2 Norte 4 Este 0 -- -- 81
2020-09-14 23:00:00 20.5 0 Calma 10 Oeste 0 -- -- 77
2020-09-14 22:00:00 22 4 Sudoeste 10 Sur 0 -- -- 72
2020-09-14 21:00:00 23.8 6 Sudoeste 22 Sur 0 -- -- 66
2020-09-14 20:00:00 25.3 14 Sudoeste 27 Sudoeste 0 -- -- 68
2020-09-14 19:00:00 27.3 16 Oeste 28 Oeste 0 -- -- 63
2020-09-14 18:00:00 28.9 12 Sudoeste 30 Sur 0 -- -- 58
2020-09-14 17:00:00 29.3 15 Sur 34 Sur 0 -- -- 56
2020-09-14 16:00:00 29.8 18 Sur 35 Sur 0 -- -- 54
2020-09-14 15:00:00 30.1 15 Sudoeste 40 Sudoeste 0 -- -- 50
2020-09-14 14:00:00 30.9 15 Sur 29 Sur 0 -- -- 47
2020-09-14 13:00:00 29.7 13 Sur 26 Sudoeste 0 -- -- 47
2020-09-14 12:00:00 28 10 Sur 24 Sudoeste 0 -- -- 49
2020-09-14 11:00:00 26.3 5 Oeste 11 Sudoeste 0 -- -- 55
2020-09-14 10:00:00 23.4 2 Norte 8 Norte 0 -- -- 68
2020-09-14 09:00:00 19.2 0 Calma 10 Norte 0 -- -- 84
2020-09-14 08:00:00 19.3 5 Norte 9 Norte 0 -- -- 82
2020-09-14 07:00:00 19.1 6 Norte 10 Norte 0 -- -- 87
2020-09-14 06:00:00 18.7 4 Norte 8 Norte 0 -- -- 85
2020-09-14 05:00:00 18.9 5 Norte 7 Norte 0 -- -- 87
2020-09-14 04:00:00 19.8 4 Norte 7 Noroeste 0 -- -- 84
2020-09-14 03:00:00 21.1 5 Norte 12 Noroeste 0 -- -- 81
2020-09-14 02:00:00 20.8 7 Noroeste 12 Noroeste 0 -- -- 83
2020-09-14 01:00:00 21 5 Norte 13 Noroeste 0 -- -- 83
2020-09-14 00:00:00 21.2 6 Noroeste 10 Noroeste 0 -- -- 83
2020-09-13 23:00:00 22.2 5 Noroeste 10 Noroeste 0 -- -- 79
2020-09-13 22:00:00 23.5 6 Noroeste 15 Oeste 0 -- -- 76
2020-09-13 21:00:00 24.6 11 Oeste 22 Oeste 0 -- -- 71
2020-09-13 20:00:00 26.5 13 Oeste 28 Sudoeste 0 -- -- 63
2020-09-13 19:00:00 28.6 18 Sudoeste 29 Sudoeste 0 -- -- 56
2020-09-13 18:00:00 29.7 12 Sudoeste 28 Oeste 0 -- -- 50
2020-09-13 17:00:00 31.1 15 Sudoeste 35 Sudoeste 0 -- -- 46
2020-09-13 16:00:00 30.1 19 Sudoeste 35 Sur 0 -- -- 48
2020-09-13 15:00:00 33.8 9 Sur 29 Sudeste 0 -- -- 28
2020-09-13 14:00:00 32.6 8 Sur 24 Sudeste 0 -- -- 30
2020-09-13 13:00:00 30.6 8 Sur 18 Sudeste 0 -- -- 33
2020-09-13 12:00:00 29.7 7 Sudeste 16 Sudeste 0 -- -- 35
2020-09-13 11:00:00 27.6 6 Este 15 Este 0 -- -- 41
2020-09-13 10:00:00 23.2 2 Noroeste 5 Nordeste 0 -- -- 52
2020-09-13 09:00:00 20.7 4 Noroeste 8 Nordeste 0 -- -- 55
2020-09-13 08:00:00 20.1 4 Norte 5 Nordeste 0 -- -- 56
2020-09-13 07:00:00 20.3 3 Noroeste 5 Norte 0 -- -- 55
2020-09-13 06:00:00 20.5 4 Nordeste 6 Nordeste 0 -- -- 55
2020-09-13 05:00:00 20.4 4 Norte 7 Norte 0 -- -- 54
2020-09-13 04:00:00 20.4 4 Norte 9 Nordeste 0 -- -- 53
2020-09-13 03:00:00 21.6 4 Nordeste 16 Sudeste 0 -- -- 50
2020-09-13 02:00:00 21.9 3 Este 8 Sudeste 0 -- -- 51
2020-09-13 01:00:00 22 2 Nordeste 7 Norte 0 -- -- 54
2020-09-13 00:00:00 22.5 3 Norte 8 Norte 0 -- -- 53
2020-09-12 23:00:00 23 4 Norte 6 Norte 0 -- -- 51
2020-09-12 22:00:00 26.2 3 Oeste 9 Oeste 0 -- -- 45
2020-09-12 21:00:00 27.9 5 Sudoeste 22 Oeste 0 -- -- 41
2020-09-12 20:00:00 29.8 13 Sudoeste 24 Oeste 0 -- -- 38
2020-09-12 19:00:00 32.4 12 Sudoeste 25 Oeste 0 -- -- 32
2020-09-12 18:00:00 33.9 13 Sudoeste 26 Sudoeste 0 -- -- 27
2020-09-12 17:00:00 36.2 11 Sur 24 Sudeste 0 -- -- 20
2020-09-12 16:00:00 35.2 11 Sudeste 28 Este 0 -- -- 21
2020-09-12 15:00:00 35.8 8 Sudeste 24 Sudeste 0 -- -- 21
2020-09-12 14:00:00 34.8 13 Sudeste 28 Sudeste 0 -- -- 22
2020-09-12 13:00:00 33.1 12 Sudeste 27 Sudeste 0 -- -- 24
2020-09-12 12:00:00 31 9 Nordeste 24 Este 0 -- -- 28
2020-09-12 11:00:00 29 6 Nordeste 18 Este 0 -- -- 36
2020-09-12 10:00:00 25.4 6 Nordeste 14 Nordeste 0 -- -- 44
2020-09-12 09:00:00 21.3 7 Nordeste 12 Nordeste 0 -- -- 52
2020-09-12 08:00:00 20 9 Nordeste 12 Nordeste 0 -- -- 54
2020-09-12 07:00:00 19.6 7 Nordeste 12 Nordeste 0 -- -- 55
2020-09-12 06:00:00 18.1 7 Nordeste 11 Nordeste 0 -- -- 62
2020-09-12 05:00:00 16.8 4 Nordeste 6 Norte 0 -- -- 66
2020-09-12 04:00:00 17.2 5 Norte 7 Norte 0 -- -- 65
2020-09-12 03:00:00 18.8 0 Calma 4 Oeste 0 -- -- 58
2020-09-12 02:00:00 21.6 0 Calma 11 Oeste 0 -- -- 50
2020-09-12 01:00:00 23.3 6 Oeste 12 Noroeste 0 -- -- 47
2020-09-12 00:00:00 23.7 7 Oeste 18 Noroeste 0 -- -- 46
2020-09-11 23:00:00 22.5 6 Noroeste 12 Noroeste 0 -- -- 48
2020-09-11 22:00:00 24.7 6 Noroeste 12 Oeste 0 -- -- 42
2020-09-11 21:00:00 27.6 8 Sudoeste 23 Sudoeste 0 -- -- 38
2020-09-11 20:00:00 30 11 Sudoeste 30 Sudoeste 0 -- -- 32
2020-09-11 19:00:00 33.3 16 Sudoeste 32 Sudoeste 0 -- -- 30
2020-09-11 18:00:00 35.1 5 Sur 20 Este 0 -- -- 25
2020-09-11 17:00:00 35.4 9 Este 22 Sudeste 0 -- -- 24
2020-09-11 16:00:00 33.5 5 Sudeste 17 Sudeste 0 -- -- 28
2020-09-11 15:00:00 32.9 6 Sur 16 Este 0 -- -- 30
2020-09-11 14:00:00 31.7 5 Sur 14 Sudeste 0 -- -- 32
2020-09-11 13:00:00 29.7 7 Este 16 Sudeste 0 -- -- 35
2020-09-11 12:00:00 28.3 5 Sur 13 Sur 0 -- -- 37
2020-09-11 11:00:00 26 5 Sur 10 Sudoeste 0 -- -- 41
2020-09-11 10:00:00 22.5 3 Nordeste 6 Nordeste 0 -- -- 57
2020-09-11 09:00:00 18.4 4 Norte 8 Norte 0 -- -- 71
2020-09-11 08:00:00 16.3 5 Norte 8 Norte 0 -- -- 75
2020-09-11 07:00:00 16.1 5 Norte 7 Norte 0 -- -- 74
2020-09-11 06:00:00 16.3 3 Norte 8 Este 0 -- -- 69
2020-09-11 05:00:00 17.6 5 Este 10 Sudeste 0 -- -- 67
2020-09-11 04:00:00 17.9 3 Sudeste 6 Nordeste 0 -- -- 60
2020-09-11 03:00:00 18.1 3 Oeste 4 Sudoeste 0 -- -- 65
2020-09-11 02:00:00 19.7 2 Noroeste 5 Oeste 0 -- -- 64
2020-09-11 01:00:00 22.2 6 Sudeste 12 Oeste 0 -- -- 56
2020-09-11 00:00:00 21.4 6 Oeste 11 Noroeste 0 -- -- 54
2020-09-10 23:00:00 22.3 3 Oeste 4 Oeste 0 -- -- 52
2020-09-10 22:00:00 25.3 5 Oeste 15 Oeste 0 -- -- 46
2020-09-10 21:00:00 27.5 7 Sudoeste 21 Sudoeste 0 -- -- 40
2020-09-10 20:00:00 30.8 12 Sudoeste 27 Sudoeste 0 -- -- 29
2020-09-10 19:00:00 33 16 Oeste 28 Sudoeste 0 -- -- 26
2020-09-10 18:00:00 33.9 14 Sudoeste 29 Sudoeste 0 -- -- 26
2020-09-10 17:00:00 34.5 14 Sudoeste 28 Sudoeste 0 -- -- 26
2020-09-10 16:00:00 34.5 12 Sur 25 Sudoeste 0 -- -- 26
2020-09-10 15:00:00 33.3 10 Sudoeste 22 Sudoeste 0 -- -- 28
2020-09-10 14:00:00 32.2 11 Sudoeste 19 Sudoeste 0 -- -- 30
2020-09-10 13:00:00 30 4 Noroeste 17 Oeste 0 -- -- 36
2020-09-10 12:00:00 28 7 Oeste 17 Oeste 0 -- -- 41
2020-09-10 11:00:00 25.1 3 Norte 12 Noroeste 0 -- -- 55
2020-09-10 10:00:00 22.1 3 Noroeste 6 Noroeste 0 -- -- 73
2020-09-10 09:00:00 16.8 4 Norte 6 Norte 0 -- -- 89
2020-09-10 08:00:00 15.7 3 Norte 5 Nordeste 0 -- -- 86
2020-09-10 07:00:00 16.1 4 Nordeste 6 Nordeste 0 -- -- 83
2020-09-10 06:00:00 17.1 3 Nordeste 8 Nordeste 0 -- -- 77
2020-09-10 05:00:00 17.5 4 Este 9 Este 0 -- -- 76
2020-09-10 04:00:00 17.8 0 Calma 5 Nordeste 0 -- -- 75
2020-09-10 03:00:00 18.4 4 Noroeste 6 Oeste 0 -- -- 73
2020-09-10 02:00:00 19 3 Sur 8 Sudeste 0 -- -- 70
2020-09-10 01:00:00 19.3 3 Norte 5 Norte 0 -- -- 71
2020-09-10 00:00:00 20.8 2 Noroeste 8 Noroeste 0 -- -- 67
2020-09-09 23:00:00 22.6 3 Noroeste 12 Sudoeste 0 -- -- 60
2020-09-09 22:00:00 23.9 7 Sudoeste 16 Sudoeste 0 -- -- 58
2020-09-09 21:00:00 26.1 10 Sudoeste 22 Oeste 0 -- -- 49
2020-09-09 20:00:00 29.3 13 Sudoeste 27 Sudoeste 0 -- -- 45
2020-09-09 19:00:00 31.8 14 Oeste 27 Oeste 0 -- -- 39
2020-09-09 18:00:00 32.6 13 Sudoeste 33 Oeste 0 -- -- 38
2020-09-09 17:00:00 33.3 10 Sur 22 Sur 0 -- -- 36
2020-09-09 16:00:00 31.1 8 Sur 20 Sur 0 -- -- 41
2020-09-09 15:00:00 32.7 8 Sur 22 Sudeste 0 -- -- 39
2020-09-09 14:00:00 31.8 8 Sur 21 Sudeste 0 -- -- 42
2020-09-09 13:00:00 29.6 6 Sudoeste 16 Este 0 -- -- 47
2020-09-09 12:00:00 28.3 5 Noroeste 13 Norte 0 -- -- 51
2020-09-09 11:00:00 25.7 5 Nordeste 12 Nordeste 0 -- -- 59
2020-09-09 10:00:00 22.5 7 Nordeste 12 Nordeste 0 -- -- 74
2020-09-09 09:00:00 19.9 4 Nordeste 10 Norte 0 -- -- 85
2020-09-09 08:00:00 19.3 8 Norte 12 Norte 0 -- -- 85
2020-09-09 07:00:00 18.3 5 Norte 7 Norte 0 -- -- 86
2020-09-09 06:00:00 18.3 5 Norte 8 Norte 0 -- -- 87
2020-09-09 05:00:00 18.8 4 Norte 7 Norte 0 -- -- 85
2020-09-09 04:00:00 19.7 5 Norte 8 Norte 0 -- -- 83
2020-09-09 03:00:00 20.3 4 Norte 8 Noroeste 0 -- -- 82
2020-09-09 02:00:00 21.4 6 Noroeste 10 Noroeste 0 -- -- 80
2020-09-09 01:00:00 22.1 6 Noroeste 12 Oeste 0 -- -- 77
2020-09-09 00:00:00 23.1 7 Noroeste 14 Oeste 0 -- -- 73
2020-09-08 23:00:00 24.4 7 Oeste 12 Sudoeste 0 -- -- 67
2020-09-08 22:00:00 25 6 Sudoeste 18 Sudoeste 0 -- -- 65
2020-09-08 21:00:00 26.1 8 Sudoeste 20 Sudoeste 0 -- -- 60
2020-09-08 20:00:00 28.3 11 Sudoeste 26 Sudoeste 0 -- -- 54
2020-09-08 19:00:00 29.9 15 Sudoeste 32 Sudoeste 0 -- -- 48
2020-09-08 18:00:00 31.3 17 Sudoeste 33 Sudoeste 0 -- -- 44
2020-09-08 17:00:00 32.7 16 Oeste 26 Sudoeste 0 -- -- 40
2020-09-08 16:00:00 33.2 12 Sur 19 Sur 0 -- -- 33
2020-09-08 15:00:00 32 6 Este 23 Sudeste 0 -- -- 38
2020-09-08 14:00:00 30.5 6 Sur 22 Sudeste 0 -- -- 43
2020-09-08 13:00:00 29.4 7 Sudeste 22 Sudeste 0 -- -- 47
2020-09-08 12:00:00 28 9 Sudeste 17 Sudeste 0 -- -- 52
2020-09-08 11:00:00 26 9 Sudeste 15 Sudeste 0 -- -- 58
2020-09-08 10:00:00 22.9 3 Norte 6 Nordeste 0 -- -- 73
2020-09-08 09:00:00 18.7 4 Norte 6 Norte 0 -- -- 90
2020-09-08 08:00:00 17.1 4 Norte 6 Norte 0 -- -- 89
2020-09-08 07:00:00 17.5 4 Norte 7 Norte 0 -- -- 85
2020-09-08 06:00:00 17.9 4 Norte 8 Nordeste 0 -- -- 84
2020-09-08 05:00:00 19.5 4 Nordeste 13 Nordeste 0 -- -- 81
2020-09-08 04:00:00 20.5 8 Este 19 Este 0 -- -- 73
2020-09-08 03:00:00 21.5 7 Nordeste 12 Nordeste 0 -- -- 63
2020-09-08 02:00:00 19.9 0 Calma 8 Sudeste 0 -- -- 67
2020-09-08 01:00:00 20.4 0 Calma 4 Noroeste 0 -- -- 74
2020-09-08 00:00:00 22.3 4 Este 11 Noroeste 0 -- -- 66
2020-09-07 23:00:00 21.3 4 Norte 8 Norte 0 -- -- 69
2020-09-07 22:00:00 23.3 0 Calma 7 Oeste 0 -- -- 62
2020-09-07 21:00:00 25.7 4 Sudoeste 18 Sudoeste 0 -- -- 57
2020-09-07 20:00:00 27.7 10 Sudoeste 31 Sudoeste 0 -- -- 51
2020-09-07 19:00:00 29.6 17 Sudoeste 35 Sudoeste 0 -- -- 44
2020-09-07 18:00:00 32.1 17 Sudoeste 33 Sudoeste 0 -- -- 38
2020-09-07 17:00:00 34 17 Sudoeste 31 Sudoeste 0 -- -- 35
2020-09-07 16:00:00 34.4 14 Sudoeste 29 Oeste 0 -- -- 34
2020-09-07 15:00:00 33.4 12 Sudoeste 23 Sudoeste 0 -- -- 36
2020-09-07 14:00:00 31.8 14 Sudoeste 26 Oeste 0 -- -- 40
2020-09-07 13:00:00 30.8 11 Oeste 23 Sudoeste 0 -- -- 42
2020-09-07 12:00:00 28.1 11 Oeste 23 Sudoeste 0 -- -- 47
2020-09-07 11:00:00 26 12 Sudoeste 23 Oeste 0 -- -- 52
2020-09-07 10:00:00 23.5 8 Oeste 15 Sudoeste 0 -- -- 58
2020-09-07 09:00:00 19 8 Noroeste 14 Noroeste 0 -- -- 71
2020-09-07 08:00:00 17 5 Noroeste 8 Noroeste 0 -- -- 76
2020-09-07 07:00:00 18.3 3 Noroeste 8 Oeste 0 -- -- 74
2020-09-07 06:00:00 19 3 Noroeste 6 Oeste 0 -- -- 73
2020-09-07 05:00:00 19.5 3 Oeste 8 Oeste 0 -- -- 72
2020-09-07 04:00:00 20 6 Oeste 9 Oeste 0 -- -- 69
2020-09-07 03:00:00 21.2 6 Oeste 12 Oeste 0 -- -- 65
2020-09-07 02:00:00 22.1 8 Noroeste 15 Oeste 0 -- -- 65
2020-09-07 01:00:00 21.4 9 Noroeste 13 Noroeste 0 -- -- 69
2020-09-07 00:00:00 21.6 6 Oeste 10 Noroeste 0 -- -- 68
2020-09-06 23:00:00 23.3 6 Noroeste 15 Oeste 0 -- -- 64
2020-09-06 22:00:00 24.5 7 Oeste 14 Sudoeste 0 -- -- 61
2020-09-06 21:00:00 25.9 11 Sudoeste 23 Oeste 0 -- -- 57
2020-09-06 20:00:00 28 15 Sudoeste 30 Oeste 0 -- -- 49
2020-09-06 19:00:00 31 17 Sudoeste 29 Oeste 0 -- -- 40
2020-09-06 18:00:00 33.2 16 Oeste 30 Oeste 0 -- -- 35
2020-09-06 17:00:00 34.1 15 Oeste 30 Sur 0 -- -- 33
2020-09-06 16:00:00 34.9 15 Sudoeste 30 Sudoeste 0 -- -- 32
2020-09-06 15:00:00 35.2 8 Sudeste 23 Sudeste 0 -- -- 29
2020-09-06 14:00:00 33.7 9 Sur 20 Sudeste 0 -- -- 31
2020-09-06 13:00:00 31.9 8 Sur 22 Sur 0 -- -- 35
2020-09-06 12:00:00 29.8 6 Este 16 Este 0 -- -- 39
2020-09-06 11:00:00 27.7 5 Sudeste 14 Sudeste 0 -- -- 45
2020-09-06 10:00:00 24.3 3 Nordeste 10 Norte 0 -- -- 55
2020-09-06 09:00:00 20.4 6 Norte 13 Norte 0 -- -- 68
2020-09-06 08:00:00 19 5 Norte 10 Norte 0 -- -- 72
2020-09-06 07:00:00 19.4 6 Norte 12 Norte 0 -- -- 75
2020-09-06 06:00:00 18.7 6 Norte 12 Norte 0 -- -- 76
2020-09-06 05:00:00 17.5 4 Norte 6 Norte 0 -- -- 75
2020-09-06 04:00:00 18.5 4 Noroeste 6 Norte 0 -- -- 73
2020-09-06 03:00:00 19.4 5 Oeste 10 Oeste 0 -- -- 70
2020-09-06 02:00:00 19.4 3 Noroeste 6 Oeste 0 -- -- 65
2020-09-06 01:00:00 20.9 2 Noroeste 8 Oeste 0 -- -- 58
2020-09-06 00:00:00 22.7 4 Oeste 10 Oeste 0 -- -- 53
2020-09-05 23:00:00 25.1 8 Oeste 15 Oeste 0 -- -- 48
2020-09-05 22:00:00 26.6 8 Oeste 19 Sudoeste 0 -- -- 44
2020-09-05 21:00:00 28.6 10 Oeste 21 Sudoeste 0 -- -- 39
2020-09-05 20:00:00 31.8 13 Sudoeste 24 Sudoeste 0 -- -- 33
2020-09-05 19:00:00 35.5 10 Sudoeste 22 Sudoeste 0 -- -- 29
2020-09-05 18:00:00 36.6 10 Sudeste 22 Sudeste 0 -- -- 22
2020-09-05 17:00:00 36.5 12 Sudeste 26 Sudeste 0 -- -- 23
2020-09-05 16:00:00 35.7 5 Este 24 Sudeste 0 -- -- 25
2020-09-05 15:00:00 34.1 6 Sur 19 Este 0 -- -- 30
2020-09-05 14:00:00 32.5 8 Sudeste 22 Este 0 -- -- 33
2020-09-05 13:00:00 31.1 6 Sudoeste 14 Este 0 -- -- 38
2020-09-05 12:00:00 28.6 5 Nordeste 13 Nordeste 0 -- -- 43
2020-09-05 11:00:00 26.3 5 Este 15 Este 0 -- -- 49
2020-09-05 10:00:00 23.4 8 Este 13 Nordeste 0 -- -- 58
2020-09-05 09:00:00 18.7 5 Nordeste 9 Norte 0 -- -- 80
2020-09-05 08:00:00 17.9 4 Nordeste 11 Norte 0 -- -- 79
2020-09-05 07:00:00 19 7 Norte 12 Norte 0 -- -- 80
2020-09-05 06:00:00 17.2 5 Norte 9 Norte 0 -- -- 84
2020-09-05 05:00:00 17.3 3 Norte 5 Noroeste 0 -- -- 81
2020-09-05 04:00:00 18 5 Norte 8 Norte 0 -- -- 82
2020-09-05 03:00:00 18.6 4 Norte 8 Noroeste 0 -- -- 77
2020-09-05 02:00:00 19.4 4 Noroeste 6 Norte 0 -- -- 74
2020-09-05 01:00:00 21.4 4 Norte 15 Noroeste 0 -- -- 70
2020-09-05 00:00:00 22.4 7 Noroeste 13 Oeste 0 -- -- 68
2020-09-04 23:00:00 23.5 5 Noroeste 15 Oeste 0 -- -- 63
2020-09-04 22:00:00 25.6 9 Oeste 18 Oeste 0 -- -- 58
2020-09-04 21:00:00 28 9 Oeste 22 Sudoeste 0 -- -- 47
2020-09-04 20:00:00 31 12 Sudoeste 27 Sudoeste 0 -- -- 36
2020-09-04 19:00:00 35 12 Sudoeste 22 Sudeste 0 -- -- 26
2020-09-04 18:00:00 36.1 12 Sudeste 23 Sudeste 0 -- -- 17
2020-09-04 17:00:00 35.8 11 Este 28 Este 0 -- -- 18
2020-09-04 16:00:00 35.4 13 Sudeste 30 Este 0 -- -- 20
2020-09-04 15:00:00 34.5 12 Este 32 Este 0 -- -- 20
2020-09-04 14:00:00 32.9 14 Este 31 Nordeste 0 -- -- 23
2020-09-04 13:00:00 31.6 14 Este 34 Este 0 -- -- 25
2020-09-04 12:00:00 30.1 13 Este 30 Este 0 -- -- 28
2020-09-04 11:00:00 27.9 14 Nordeste 31 Este 0 -- -- 32
2020-09-04 10:00:00 25 8 Este 22 Nordeste 0 -- -- 45
2020-09-04 09:00:00 21.1 6 Nordeste 17 Nordeste 0 -- -- 57
2020-09-04 08:00:00 19.2 4 Nordeste 13 Nordeste 0 -- -- 58
2020-09-04 07:00:00 19.2 6 Norte 11 Norte 0 -- -- 55
2020-09-04 06:00:00 19.9 4 Norte 9 Nordeste 0 -- -- 50
2020-09-04 05:00:00 19.8 6 Norte 10 Norte 0 -- -- 49
2020-09-04 04:00:00 18 6 Norte 8 Norte 0 -- -- 53
2020-09-04 03:00:00 19.4 6 Norte 9 Norte 0 -- -- 49
2020-09-04 02:00:00 21.7 7 Norte 12 Nordeste 0 -- -- 45
2020-09-04 01:00:00 19.8 5 Norte 8 Norte 0 -- -- 49
2020-09-04 00:00:00 20.8 3 Norte 6 Norte 0 -- -- 47
2020-09-03 23:00:00 22.9 4 Norte 5 Noroeste 0 -- -- 41
2020-09-03 22:00:00 26.9 3 Noroeste 12 Oeste 0 -- -- 34
2020-09-03 21:00:00 30.4 2 Oeste 21 Este 0 -- -- 30
2020-09-03 20:00:00 34.2 10 Este 28 Sudeste 0 -- -- 19
2020-09-03 19:00:00 35.6 13 Este 36 Sudeste 0 -- -- 19
2020-09-03 18:00:00 36.1 14 Este 38 Este 0 -- -- 19
2020-09-03 17:00:00 36 14 Este 35 Este 0 -- -- 22
2020-09-03 16:00:00 35.5 14 Este 38 Sudeste 0 -- -- 23
2020-09-03 15:00:00 34.7 16 Este 34 Sudeste 0 -- -- 26
2020-09-03 14:00:00 33.8 14 Este 30 Este 0 -- -- 27
2020-09-03 13:00:00 32.6 11 Este 26 Este 0 -- -- 27
2020-09-03 12:00:00 30 11 Este 27 Este 0 -- -- 35
2020-09-03 11:00:00 27.9 10 Este 19 Este 0 -- -- 40
2020-09-03 10:00:00 23.9 5 Nordeste 12 Nordeste 0 -- -- 43
2020-09-03 09:00:00 19.8 7 Nordeste 13 Nordeste 0 -- -- 46
2020-09-03 08:00:00 18.5 6 Norte 13 Nordeste 0 -- -- 49
2020-09-03 07:00:00 16.4 6 Norte 12 Norte 0 -- -- 54
2020-09-03 06:00:00 15 4 Norte 6 Norte 0 -- -- 59
2020-09-03 05:00:00 15.6 4 Norte 8 Norte 0 -- -- 60
2020-09-03 04:00:00 15.8 7 Norte 9 Norte 0 -- -- 61
2020-09-03 03:00:00 16.9 4 Noroeste 7 Oeste 0 -- -- 58
2020-09-03 02:00:00 17.9 4 Oeste 11 Sur 0 -- -- 56
2020-09-03 01:00:00 18.2 5 Noroeste 6 Noroeste 0 -- -- 51
2020-09-03 00:00:00 20.1 0 Calma 7 Noroeste 0 -- -- 47
2020-09-02 23:00:00 21.8 4 Noroeste 9 Oeste 0 -- -- 44
2020-09-02 22:00:00 24.5 4 Oeste 10 Sudoeste 0 -- -- 38
2020-09-02 21:00:00 27.6 7 Sudoeste 15 Sudoeste 0 -- -- 32
2020-09-02 20:00:00 29.4 11 Oeste 22 Oeste 0 -- -- 29
2020-09-02 19:00:00 30.5 12 Sudoeste 24 Sudoeste 0 -- -- 31
2020-09-02 18:00:00 31.6 14 Sudoeste 31 Sur 0 -- -- 33
2020-09-02 17:00:00 32.3 10 Sudoeste 23 Sur 0 -- -- 33
2020-09-02 16:00:00 32 8 Sur 24 Sudeste 0 -- -- 34
2020-09-02 15:00:00 31.1 9 Sur 21 Sudoeste 0 -- -- 36
2020-09-02 14:00:00 29.3 8 Sudeste 20 Sudeste 0 -- -- 40
2020-09-02 13:00:00 26.9 9 Sudeste 17 Sudeste 0 -- -- 45
2020-09-02 12:00:00 25.1 9 Sudeste 18 Sudeste 0 -- -- 54
2020-09-02 11:00:00 23.1 10 Sudeste 18 Sudeste 0 -- -- 64
2020-09-02 10:00:00 20.5 8 Este 16 Nordeste 0 -- -- 70
2020-09-02 09:00:00 16.9 5 Este 10 Este 0 -- -- 73
2020-09-02 08:00:00 14.6 5 Nordeste 12 Este 0 -- -- 69
2020-09-02 07:00:00 13.6 4 Nordeste 11 Este 0 -- -- 67
2020-09-02 06:00:00 14 2 Sudeste 4 Noroeste 0 -- -- 65
2020-09-02 05:00:00 14.1 3 Norte 5 Nordeste 0 -- -- 65
2020-09-02 04:00:00 14.1 3 Norte 5 Nordeste 0 -- -- 63
2020-09-02 03:00:00 14.5 2 Norte 5 Noroeste 0 -- -- 64
2020-09-02 02:00:00 15.2 0 Calma 4 Este 0 -- -- 63
2020-09-02 01:00:00 16 2 Noroeste 5 Oeste 0 -- -- 63
2020-09-02 00:00:00 16.7 3 Noroeste 7 Norte 0 -- -- 63
2020-09-01 23:00:00 19.2 0 Calma 13 Oeste 0 -- -- 55
2020-09-01 22:00:00 22 7 Oeste 15 Oeste 0 -- -- 50
2020-09-01 21:00:00 23.8 10 Sudoeste 25 Sudoeste 0 -- -- 50
2020-09-01 20:00:00 26.2 12 Sudoeste 33 Oeste 0 -- -- 46
2020-09-01 19:00:00 27.6 17 Sudoeste 34 Oeste 0 -- -- 38
2020-09-01 18:00:00 29.3 18 Sudoeste 37 Sudoeste 0 -- -- 31
2020-09-01 17:00:00 31.4 20 Sudoeste 34 Sudoeste 0 -- -- 22
2020-09-01 16:00:00 32.1 18 Sudoeste 28 Sudoeste 0 -- -- 22
2020-09-01 15:00:00 30.6 11 Sudoeste 24 Sudoeste 0 -- -- 21
2020-09-01 14:00:00 29.1 14 Sudoeste 26 Sur 0 -- -- 25
2020-09-01 13:00:00 26.2 8 Sudoeste 15 Sudoeste 0 -- -- 31
2020-09-01 12:00:00 24.1 5 Sudoeste 9 Sur 0 -- -- 36
2020-09-01 11:00:00 21.4 3 Sudeste 5 Sur 0 -- -- 51
2020-09-01 10:00:00 19.4 2 Sur 6 Este 0 -- -- 61
2020-09-01 09:00:00 16.8 0 Calma 3 Nordeste 0 -- -- 73
2020-09-01 08:00:00 16.1 2 Sur 6 Norte 0 -- -- 74
2020-09-01 07:00:00 14.9 5 Norte 8 Noroeste 0 -- -- 76
2020-09-01 06:00:00 14.8 3 Norte 5 Noroeste 0 -- -- 74
2020-09-01 05:00:00 15.8 3 Norte 6 Oeste 0 -- -- 69
2020-09-01 04:00:00 18.2 0 Calma 15 Oeste 0 -- -- 60
2020-09-01 03:00:00 16.1 5 Oeste 9 Oeste 0 -- -- 66
2020-09-01 02:00:00 17 3 Noroeste 4 Noroeste 0 -- -- 63
2020-09-01 01:00:00 18.8 3 Norte 6 Sudeste 0 -- -- 57
2020-09-01 00:00:00 22.2 4 Sur 12 Oeste 0 -- -- 49
2020-08-31 23:00:00 24 8 Oeste 17 Oeste 0 -- -- 44
2020-08-31 22:00:00 25.2 9 Oeste 25 Sudoeste 0 -- -- 44
2020-08-31 21:00:00 27.5 12 Sudoeste 25 Sudoeste 0 -- -- 35
2020-08-31 20:00:00 31.7 12 Sudoeste 21 Este 0 -- -- 27
2020-08-31 19:00:00 34.1 13 Sudeste 25 Este 0 -- -- 18
2020-08-31 18:00:00 34.3 15 Este 35 Sudeste 0 -- -- 18
2020-08-31 17:00:00 34.3 14 Sudeste 30 Sudeste 0 -- -- 19
2020-08-31 16:00:00 33.5 9 Sudeste 28 Este 0 -- -- 20
2020-08-31 15:00:00 32.8 11 Este 32 Sudeste 0 -- -- 22
2020-08-31 14:00:00 31.7 13 Sudeste 29 Este 0 -- -- 27
2020-08-31 13:00:00 30.2 13 Este 29 Este 0 -- -- 33
2020-08-31 12:00:00 28.5 10 Este 28 Sudeste 0 -- -- 40
2020-08-31 11:00:00 26.5 9 Este 21 Nordeste 0 -- -- 44
2020-08-31 10:00:00 23.3 8 Nordeste 23 Este 0 -- -- 51
2020-08-31 09:00:00 18.4 8 Nordeste 14 Este 0 -- -- 44
2020-08-31 08:00:00 13.3 5 Nordeste 8 Nordeste 0 -- -- 46
2020-08-31 07:00:00 13.4 2 Noroeste 6 Norte 0 -- -- 45
2020-08-31 06:00:00 14.9 2 Oeste 8 Nordeste 0 -- -- 43
2020-08-31 05:00:00 16.5 4 Nordeste 9 Nordeste 0 -- -- 38
2020-08-31 04:00:00 16.8 7 Norte 11 Nordeste 0 -- -- 42
2020-08-31 03:00:00 19.2 5 Nordeste 12 Este 0 -- -- 38
2020-08-31 02:00:00 22.1 6 Este 18 Nordeste 0 -- -- 27
2020-08-31 01:00:00 24.1 9 Norte 18 Nordeste 0 -- -- 24
2020-08-31 00:00:00 23.7 9 Norte 16 Norte 0 -- -- 25
2020-08-30 23:00:00 23.3 7 Norte 15 Nordeste 0 -- -- 30
2020-08-30 22:00:00 23.7 4 Noroeste 13 Sudoeste 0 -- -- 30
2020-08-30 21:00:00 27.8 5 Oeste 21 Sur 0 -- -- 24
2020-08-30 20:00:00 30.6 9 Sur 19 Sur 0 -- -- 21
2020-08-30 19:00:00 32.2 10 Sudeste 17 Sudeste 0 -- -- 17
2020-08-30 18:00:00 33.1 6 Sudeste 23 Sudoeste 0 -- -- 16
2020-08-30 17:00:00 32.6 10 Sudoeste 28 Sudeste 0 -- -- 16
2020-08-30 16:00:00 32.6 10 Este 26 Este 0 -- -- 17
2020-08-30 15:00:00 31.7 5 Norte 25 Nordeste 0 -- -- 18
2020-08-30 14:00:00 31.3 12 Este 29 Sur 0 -- -- 19
2020-08-30 13:00:00 30.5 12 Este 26 Este 0 -- -- 20
2020-08-30 12:00:00 28.1 12 Nordeste 31 Este 0 -- -- 24
2020-08-30 11:00:00 26.6 12 Este 28 Nordeste 0 -- -- 26
2020-08-30 10:00:00 22.9 10 Nordeste 21 Nordeste 0 -- -- 33
2020-08-30 09:00:00 20.4 8 Norte 19 Norte 0 -- -- 37
2020-08-30 08:00:00 20.2 10 Norte 21 Nordeste 0 -- -- 38
2020-08-30 07:00:00 20.3 10 Norte 21 Norte 0 -- -- 38
2020-08-30 06:00:00 20.5 10 Norte 22 Norte 0 -- -- 38
2020-08-30 05:00:00 20.2 10 Norte 19 Noroeste 0 -- -- 38
2020-08-30 04:00:00 20.2 12 Norte 22 Norte 0 -- -- 37
2020-08-30 03:00:00 20.5 12 Noroeste 24 Noroeste 0 -- -- 37
2020-08-30 02:00:00 19.3 10 Noroeste 16 Norte 0 -- -- 35
2020-08-30 01:00:00 15.9 6 Norte 9 Noroeste 0 -- -- 41
2020-08-30 00:00:00 18.1 6 Norte 9 Noroeste 0 -- -- 36
2020-08-29 23:00:00 20.4 0 Calma 11 Norte 0 -- -- 32
2020-08-29 22:00:00 21.9 5 Norte 11 Norte 0 -- -- 29
2020-08-29 21:00:00 25.4 6 Norte 23 Noroeste 0 -- -- 24
2020-08-29 20:00:00 27.3 13 Noroeste 28 Noroeste 0 -- -- 22
2020-08-29 19:00:00 28.9 13 Noroeste 55 Oeste 0 -- -- 19
2020-08-29 18:00:00 29.2 16 Noroeste 32 Noroeste 0 -- -- 20
2020-08-29 17:00:00 29.1 14 Noroeste 30 Oeste 0 -- -- 20
2020-08-29 16:00:00 27.8 14 Norte 39 Noroeste 0 -- -- 23
2020-08-29 15:00:00 27.4 19 Noroeste 37 Noroeste 0 -- -- 27
2020-08-29 14:00:00 25.9 17 Noroeste 36 Noroeste 0 -- -- 31
2020-08-29 13:00:00 24.2 22 Noroeste 35 Noroeste 0 -- -- 31
2020-08-29 12:00:00 22.7 14 Noroeste 38 Norte 0 -- -- 35
2020-08-29 11:00:00 20.3 14 Noroeste 27 Noroeste 0 -- -- 43
2020-08-29 10:00:00 18.1 9 Noroeste 22 Noroeste 0 -- -- 52
2020-08-29 09:00:00 15 7 Noroeste 13 Noroeste 0 -- -- 65
2020-08-29 08:00:00 14.3 5 Noroeste 12 Oeste 0 -- -- 67
2020-08-29 07:00:00 15.3 6 Oeste 12 Noroeste 0 -- -- 65
2020-08-29 06:00:00 16.1 8 Oeste 18 Oeste 0 -- -- 63
2020-08-29 05:00:00 17 9 Noroeste 26 Oeste 0 -- -- 59
2020-08-29 04:00:00 17.9 15 Noroeste 33 Noroeste 0 -- -- 55
2020-08-29 03:00:00 18.7 16 Noroeste 28 Noroeste 0 -- -- 49
2020-08-29 02:00:00 20 15 Noroeste 43 Noroeste 0 -- -- 45
2020-08-29 01:00:00 21.6 26 Noroeste 45 Noroeste 0 -- -- 42
2020-08-29 00:00:00 23.4 15 Noroeste 30 Noroeste 0 -- -- 36
2020-08-28 23:00:00 25.1 15 Noroeste 29 Noroeste 0 -- -- 31
2020-08-28 22:00:00 27 16 Noroeste 36 Noroeste 0 -- -- 24
2020-08-28 21:00:00 29.1 19 Noroeste 36 Oeste 0 -- -- 22
2020-08-28 20:00:00 31.5 24 Noroeste 38 Oeste 0 -- -- 30
2020-08-28 19:00:00 33.3 17 Noroeste 40 Oeste 0 -- -- 31
2020-08-28 18:00:00 34.1 19 Oeste 45 Oeste 0 -- -- 32
2020-08-28 17:00:00 34.1 18 Noroeste 45 Oeste 0 -- -- 34
2020-08-28 16:00:00 33.3 19 Noroeste 37 Noroeste 0 -- -- 36
2020-08-28 15:00:00 32.8 18 Noroeste 38 Oeste 0 -- -- 37
2020-08-28 14:00:00 32.4 14 Noroeste 35 Oeste 0 -- -- 36
2020-08-28 13:00:00 30.7 17 Noroeste 38 Noroeste 0 -- -- 38
2020-08-28 12:00:00 29.3 17 Noroeste 28 Noroeste 0 -- -- 40
2020-08-28 11:00:00 26.6 12 Noroeste 26 Noroeste 0 -- -- 50
2020-08-28 10:00:00 24.1 9 Noroeste 16 Noroeste 0 -- -- 59
2020-08-28 09:00:00 20.4 4 Sudoeste 10 Noroeste 0 -- -- 75
2020-08-28 08:00:00 19.8 4 Noroeste 14 Noroeste 0 -- -- 76
2020-08-28 07:00:00 20.2 3 Noroeste 19 Noroeste 0 -- -- 76
2020-08-28 06:00:00 20.5 11 Noroeste 22 Noroeste 0 -- -- 75
2020-08-28 05:00:00 21.3 12 Noroeste 24 Noroeste 0 -- -- 72
2020-08-28 04:00:00 22.2 12 Noroeste 20 Noroeste 0 -- -- 69
2020-08-28 03:00:00 23.8 8 Noroeste 20 Noroeste 0 -- -- 63
2020-08-28 02:00:00 25.6 4 Norte 23 Noroeste 0 -- -- 53
2020-08-28 01:00:00 27.4 14 Noroeste 33 Noroeste 0 -- -- 45
2020-08-28 00:00:00 29.3 17 Noroeste 34 Noroeste 0 -- -- 41
2020-08-27 23:00:00 31.1 16 Noroeste 26 Noroeste 0 -- -- 33
2020-08-27 22:00:00 32.7 11 Noroeste 23 Noroeste 0 -- -- 28
2020-08-27 21:00:00 35 13 Oeste 33 Oeste 0 -- -- 26
2020-08-27 20:00:00 37.2 19 Oeste 34 Noroeste 0 -- -- 23
2020-08-27 19:00:00 38.4 15 Oeste 37 Oeste 0 -- -- 23
2020-08-27 18:00:00 38.6 19 Oeste 38 Oeste 0 -- -- 21
2020-08-27 17:00:00 38.6 20 Oeste 40 Oeste 0 -- -- 19
2020-08-27 16:00:00 38.5 18 Oeste 37 Oeste 0 -- -- 19
2020-08-27 15:00:00 38.3 16 Oeste 31 Sudoeste 0 -- -- 18
2020-08-27 14:00:00 36.7 13 Oeste 29 Sudoeste 0 -- -- 23
2020-08-27 13:00:00 35.9 12 Sudoeste 24 Oeste 0 -- -- 26
2020-08-27 12:00:00 33.3 8 Sur 14 Sur 0 -- -- 31
2020-08-27 11:00:00 30.3 5 Sur 9 Sudeste 0 -- -- 35
2020-08-27 10:00:00 26.9 4 Sur 7 Sur 0 -- -- 40
2020-08-27 09:00:00 20.7 2 Norte 7 Noroeste 0 -- -- 56
2020-08-27 08:00:00 18.9 0 Calma 8 Noroeste 0 -- -- 57
2020-08-27 07:00:00 19.1 0 Calma 5 Nordeste 0 -- -- 54
2020-08-27 06:00:00 19.7 0 Calma 5 Nordeste 0 -- -- 51
2020-08-27 05:00:00 20.6 0 Calma 4 Sudoeste 0 -- -- 51
2020-08-27 04:00:00 21.9 0 Calma 10 Norte 0 -- -- 47
2020-08-27 03:00:00 21.7 8 Norte 11 Noroeste 0 -- -- 46
2020-08-27 02:00:00 20.9 4 Norte 6 Norte 0 -- -- 53
2020-08-27 01:00:00 21.3 3 Norte 5 Norte 0 -- -- 54
2020-08-27 00:00:00 22.3 2 Norte 5 Norte 0 -- -- 53
2020-08-26 23:00:00 23.7 5 Noroeste 6 Noroeste 0 -- -- 50
2020-08-26 22:00:00 26.9 4 Oeste 12 Sudoeste 0 -- -- 44
2020-08-26 21:00:00 30.5 8 Oeste 23 Oeste 0 -- -- 38
2020-08-26 20:00:00 33.8 15 Oeste 29 Oeste 0 -- -- 33
2020-08-26 19:00:00 37.9 12 Sudoeste 26 Sudoeste 0 -- -- 25
2020-08-26 18:00:00 38.4 17 Sudoeste 28 Sudoeste 0 -- -- 24
2020-08-26 17:00:00 39 12 Sudoeste 24 Sudoeste 0 -- -- 23
2020-08-26 16:00:00 38.2 13 Sudoeste 28 Oeste 0 -- -- 24
2020-08-26 15:00:00 37.3 12 Sudoeste 25 Sudoeste 0 -- -- 27
2020-08-26 14:00:00 36.4 10 Sudoeste 20 Sur 0 -- -- 28
2020-08-26 13:00:00 34.2 6 Sudoeste 13 Sudoeste 0 -- -- 32
2020-08-26 12:00:00 30.7 5 Sudoeste 15 Sur 0 -- -- 42
2020-08-26 11:00:00 28.8 4 Sudoeste 10 Sur 0 -- -- 50
2020-08-26 10:00:00 26.4 4 Este 10 Este 0 -- -- 55
2020-08-26 09:00:00 21.2 4 Nordeste 11 Nordeste 0 -- -- 70
2020-08-26 08:00:00 17.3 6 Norte 8 Norte 0 -- -- 81
2020-08-26 07:00:00 18.2 4 Norte 9 Nordeste 0 -- -- 79
2020-08-26 06:00:00 18.5 4 Nordeste 8 Norte 0 -- -- 77
2020-08-26 05:00:00 19.2 4 Este 8 Noroeste 0 -- -- 77
2020-08-26 04:00:00 19.6 3 Nordeste 6 Norte 0 -- -- 72
2020-08-26 03:00:00 20.6 3 Nordeste 5 Nordeste 0 -- -- 69
2020-08-26 02:00:00 22.1 0 Calma 5 Noroeste 0 -- -- 66
2020-08-26 01:00:00 22.8 2 Norte 6 Noroeste 0 -- -- 65
2020-08-26 00:00:00 23.6 3 Norte 5 Noroeste 0 -- -- 63
2020-08-25 23:00:00 26.1 0 Calma 10 Oeste 0 -- -- 58
2020-08-25 22:00:00 28.2 5 Oeste 19 Sudoeste 0 -- -- 54
2020-08-25 21:00:00 30.1 8 Sudoeste 26 Sudoeste 0 -- -- 48
2020-08-25 20:00:00 33.6 15 Sudoeste 28 Sudoeste 0 -- -- 39
2020-08-25 19:00:00 36.4 14 Sudoeste 27 Oeste 0 -- -- 33
2020-08-25 18:00:00 37.6 15 Oeste 26 Oeste 0 -- -- 31
2020-08-25 17:00:00 37.9 5 Oeste 21 Sudoeste 0 -- -- 27
2020-08-25 16:00:00 36.8 9 Oeste 26 Sur 0 -- -- 29
2020-08-25 15:00:00 35.7 8 Sur 18 Sur 0 -- -- 30
2020-08-25 14:00:00 34.3 9 Sur 20 Sur 0 -- -- 36
2020-08-25 13:00:00 32.4 8 Oeste 18 Sudoeste 0 -- -- 41
2020-08-25 12:00:00 30.4 7 Sur 16 Sudoeste 0 -- -- 47
2020-08-25 11:00:00 28 4 Sudoeste 11 Oeste 0 -- -- 54
2020-08-25 10:00:00 25.6 5 Oeste 9 Oeste 0 -- -- 62
2020-08-25 09:00:00 19.2 3 Norte 6 Norte 0 -- -- 83
2020-08-25 08:00:00 17.1 4 Norte 6 Norte 0 -- -- 88
2020-08-25 07:00:00 17.8 0 Calma 5 Norte 0 -- -- 86
2020-08-25 06:00:00 18 4 Norte 6 Norte 0 -- -- 85
2020-08-25 05:00:00 18.4 3 Norte 6 Norte 0 -- -- 83
2020-08-25 04:00:00 19.2 2 Noroeste 4 Noroeste 0 -- -- 79
2020-08-25 03:00:00 20.1 3 Oeste 5 Oeste 0 -- -- 78
2020-08-25 02:00:00 20.4 3 Sudoeste 4 Sur 0 -- -- 68
2020-08-25 01:00:00 22 0 Calma 12 Noroeste 0 -- -- 64
2020-08-25 00:00:00 23.9 6 Noroeste 14 Noroeste 0 -- -- 63
2020-08-24 23:00:00 25.1 4 Oeste 10 Oeste 0 -- -- 59
2020-08-24 22:00:00 27.4 8 Oeste 17 Oeste 0 -- -- 53
2020-08-24 21:00:00 29.8 9 Sudoeste 21 Sudoeste 0 -- -- 43
2020-08-24 20:00:00 31.8 13 Sudoeste 29 Sudoeste 0 -- -- 37
2020-08-24 19:00:00 33.9 12 Sudoeste 24 Oeste 0 -- -- 33
2020-08-24 18:00:00 34.1 17 Sudoeste 29 Sudoeste 0 -- -- 34
2020-08-24 17:00:00 34.8 12 Sudoeste 26 Sudoeste 0 -- -- 34
2020-08-24 16:00:00 34.7 11 Oeste 25 Sudoeste 0 -- -- 33
2020-08-24 15:00:00 33.9 13 Sur 24 Oeste 0 -- -- 34
2020-08-24 14:00:00 32.9 8 Sur 21 Sur 0 -- -- 37
2020-08-24 13:00:00 31.5 8 Sur 21 Sur 0 -- -- 42
2020-08-24 12:00:00 29.4 10 Sur 20 Sur 0 -- -- 44
2020-08-24 11:00:00 27.9 7 Sudeste 16 Sudeste 0 -- -- 44
2020-08-24 10:00:00 24.1 8 Nordeste 17 Este 0 -- -- 47
2020-08-24 09:00:00 19.1 5 Este 9 Este 0 -- -- 58
2020-08-24 08:00:00 15.8 3 Norte 6 Nordeste 0 -- -- 65
2020-08-24 07:00:00 16.4 3 Norte 5 Noroeste 0 -- -- 60
2020-08-24 06:00:00 17.8 4 Norte 5 Norte 0 -- -- 56
2020-08-24 05:00:00 20.4 5 Nordeste 9 Noroeste 0 -- -- 50
2020-08-24 04:00:00 21.6 3 Oeste 9 Oeste 0 -- -- 48
2020-08-24 03:00:00 25.1 2 Noroeste 17 Norte 0 -- -- 41
2020-08-24 02:00:00 26.6 9 Norte 24 Noroeste 0 -- -- 38
2020-08-24 01:00:00 27.7 12 Noroeste 21 Noroeste 0 -- -- 29
2020-08-24 00:00:00 28.5 9 Noroeste 16 Norte 0 -- -- 21
2020-08-23 23:00:00 29 8 Noroeste 14 Noroeste 0 -- -- 19
2020-08-23 22:00:00 30.9 8 Noroeste 15 Noroeste 0 -- -- 18
2020-08-23 21:00:00 34.3 9 Noroeste 28 Oeste 0 -- -- 15
2020-08-23 20:00:00 36.8 14 Noroeste 28 Noroeste 0 -- -- 14
2020-08-23 19:00:00 37.9 15 Noroeste 38 Norte 0 -- -- 14
2020-08-23 18:00:00 38.5 14 Oeste 32 Noroeste 0 -- -- 13
2020-08-23 17:00:00 38.6 15 Noroeste 32 Oeste 0 -- -- 11
2020-08-23 16:00:00 38 15 Noroeste 31 Noroeste 0 -- -- 11
2020-08-23 15:00:00 37.5 12 Oeste 34 Oeste 0 -- -- 12
2020-08-23 14:00:00 36.8 10 Oeste 22 Sudoeste 0 -- -- 13
2020-08-23 13:00:00 34.9 10 Sudoeste 19 Sudoeste 0 -- -- 15
2020-08-23 12:00:00 33.3 7 Sur 13 Sudoeste 0 -- -- 20
2020-08-23 11:00:00 29.7 2 Sur 7 Sur 0 -- -- 25
2020-08-23 10:00:00 24.1 2 Oeste 4 Sur 0 -- -- 35
2020-08-23 09:00:00 17.2 0 Calma 4 Norte 0 -- -- 51
2020-08-23 08:00:00 15.2 3 Norte 6 Norte 0 -- -- 53
2020-08-23 07:00:00 16.1 3 Norte 4 Noroeste 0 -- -- 50
2020-08-23 06:00:00 18.7 0 Calma 4 Sur 0 -- -- 44
2020-08-23 05:00:00 21.2 4 Noroeste 14 Noroeste 0 -- -- 38
2020-08-23 04:00:00 24.3 10 Norte 17 Norte 0 -- -- 32
2020-08-23 03:00:00 25.5 4 Noroeste 18 Noroeste 0 -- -- 29
2020-08-23 02:00:00 26.7 11 Noroeste 20 Norte 0 -- -- 26
2020-08-23 01:00:00 26.9 9 Noroeste 14 Noroeste 0 -- -- 25
2020-08-23 00:00:00 27.8 8 Noroeste 15 Noroeste 0 -- -- 23
2020-08-22 23:00:00 29.6 10 Noroeste 16 Noroeste 0 -- -- 21
2020-08-22 22:00:00 31.4 8 Noroeste 17 Noroeste 0 -- -- 19
2020-08-22 21:00:00 34.3 10 Oeste 30 Oeste 0 -- -- 16
2020-08-22 20:00:00 36.6 15 Oeste 28 Oeste 0 -- -- 15
2020-08-22 19:00:00 37.7 14 Noroeste 26 Sudoeste 0 -- -- 16
2020-08-22 18:00:00 38.1 15 Sudoeste 27 Oeste 0 -- -- 18
2020-08-22 17:00:00 37.5 9 Oeste 24 Sudoeste 0 -- -- 19
2020-08-22 16:00:00 36.6 10 Sudoeste 27 Oeste 0 -- -- 25
2020-08-22 15:00:00 35.4 12 Oeste 27 Oeste 0 -- -- 29
2020-08-22 14:00:00 34.1 10 Sudoeste 23 Oeste 0 -- -- 35
2020-08-22 13:00:00 32.8 8 Sur 20 Sudoeste 0 -- -- 37
2020-08-22 12:00:00 31.3 5 Sur 12 Sur 0 -- -- 39
2020-08-22 11:00:00 29 5 Sudoeste 10 Oeste 0 -- -- 43
2020-08-22 10:00:00 26.5 2 Sur 5 Noroeste 0 -- -- 49
2020-08-22 09:00:00 21.3 0 Calma 5 Noroeste 0 -- -- 62
2020-08-22 08:00:00 19.2 3 Noroeste 4 Noroeste 0 -- -- 70
2020-08-22 07:00:00 20.6 0 Calma 8 Noroeste 0 -- -- 65
2020-08-22 06:00:00 20.7 4 Norte 9 Noroeste 0 -- -- 66
2020-08-22 05:00:00 20.9 5 Noroeste 7 Noroeste 0 -- -- 65
2020-08-22 04:00:00 23.4 0 Calma 10 Noroeste 0 -- -- 58
2020-08-22 03:00:00 24.9 8 Noroeste 13 Noroeste 0 -- -- 54
2020-08-22 02:00:00 25.6 8 Noroeste 15 Noroeste 0 -- -- 56
2020-08-22 01:00:00 26 5 Noroeste 12 Noroeste 0 -- -- 57
2020-08-22 00:00:00 24.8 5 Noroeste 9 Norte 0 -- -- 65
2020-08-21 23:00:00 25.5 3 Oeste 10 Oeste 0 -- -- 66
2020-08-21 22:00:00 26.8 7 Oeste 17 Sudoeste 0 -- -- 64
2020-08-21 21:00:00 28.1 11 Sudoeste 26 Sudoeste 0 -- -- 59
2020-08-21 20:00:00 30.6 18 Sudoeste 27 Sudoeste 0 -- -- 51
2020-08-21 19:00:00 31.5 17 Sudoeste 32 Sudoeste 0 -- -- 48
2020-08-21 18:00:00 32.4 15 Sudoeste 33 Sudoeste 0 -- -- 46
2020-08-21 17:00:00 33.8 18 Sudoeste 34 Sudoeste 0 -- -- 43
2020-08-21 16:00:00 34.8 13 Oeste 28 Oeste 0 -- -- 38
2020-08-21 15:00:00 34.2 12 Oeste 26 Sudoeste 0 -- -- 35
2020-08-21 14:00:00 32.4 7 Oeste 23 Noroeste 0 -- -- 42
2020-08-21 13:00:00 30.7 7 Sudoeste 22 Sudoeste 0 -- -- 48
2020-08-21 12:00:00 28.6 6 Sur 15 Sudeste 0 -- -- 55
2020-08-21 11:00:00 26.7 8 Sur 15 Sur 0 -- -- 60
2020-08-21 10:00:00 23.6 2 Sur 6 Sur 0 -- -- 74
2020-08-21 09:00:00 18.9 2 Oeste -- -- 0 -- -- 91
2020-08-21 08:00:00 16.5 -- -- -- -- 0 -- -- 88
2020-08-21 07:00:00 16.9 3 Noroeste 5 Norte 0 -- -- 87
2020-08-21 06:00:00 17.7 0 Calma 4 Noroeste 0 -- -- 87
2020-08-21 05:00:00 18.7 2 Este 4 Este 0 -- -- 84
2020-08-21 04:00:00 19.2 0 Calma 3 Norte 0 -- -- 79
2020-08-21 03:00:00 20.8 0 Calma 4 Sur 0 -- -- 76
2020-08-21 02:00:00 22.8 0 Calma 11 Noroeste 0 -- -- 70
2020-08-21 01:00:00 22.1 6 Oeste 10 Noroeste 0 -- -- 70
2020-08-21 00:00:00 22.2 6 Oeste 12 Noroeste 0 -- -- 70